Aviation Digital Data Service (ADDS)

Output produced by METARs form (2243 UTC 21 May 2022)
found at http://www.aviationweather.gov/metar/data/
 
TAF SBAT 211617Z 2118/2206 12007KT CAVOK TX31/2118Z TN19/2206Z 
     BECMG 2118/2120 18007KT 
     BECMG 2123/2201 15007KT RMK PHC
       
TAF SBAN 211500Z 2118/2206 36005KT CAVOK TX22/2118Z TN12/2206Z 
     BECMG 2122/2124 09008KT RMK PEC
       
TAF SBAR 212145Z 2200/2224 15010KT 9999 SCT025 BKN040 TN24/2209Z TX28/2218Z 
     BECMG 2209/2211 8000 SCT010 BKN015 
     BECMG 2212/2214 9999 BKN035 
     BECMG 2215/2217 SCT025 
     BECMG 2221/2223 FEW017 RMK PFV
       
TAF SBBG 212100Z 2200/2212 36003KT CAVOK TN07/2206Z TX10/2212Z 
     PROB40 2206/2209 0400 FG BKN002 RMK PEH
       
TAF SBBW 211600Z 2118/2206 00000KT CAVOK TX28/2118Z TN09/2206Z RMK PHH
       
TAF SBBU 211600Z 2118/2206 10005KT CAVOK TX23/2118Z TN11/2205Z 
     TEMPO 2119/2203 22003KT RMK PGO
       
TAF SBBE 212139Z 2200/2224 06005KT 8000 SCT016 TN23/2209Z TX30/2216Z 
     BECMG 2200/2202 10005KT 
     BECMG 2206/2209 16007KT 
     BECMG 2214/2217 21007KT BKN023 FEW030TCU 
     BECMG 2218/2220 24007KT 
     BECMG 2222/2224 06005KT SCT012 RMK PHC
       
TAF SBCF 212200Z 2200/2224 14006KT CAVOK TN10/2209Z TX24/2218Z 
     BECMG 2210/2212 09008KT 
     BECMG 2214/2216 06008KT 
     BECMG 2220/2222 14006KT RMK PHH
       
TAF SBBV 212139Z 2200/2224 18005KT 7000 BKN010 FEW030TCU TN23/2210Z TX28/2218Z 
     BECMG 2200/2202 21005KT 
     TEMPO 2203/2208 4000 RA BKN007 FEW030TCU 
     BECMG 2212/2215 24007KT BKN020 FEW030TCU 
     BECMG 2218/2220 27005KT 
     BECMG 2221/2223 30005KT SCT023 FEW033TCU RMK PHC
       
TAF SBBR 212200Z 2200/2224 11002KT CAVOK TN12/2209Z TX25/2218Z 
     BECMG 2201/2203 VRB02KT 
     BECMG 2208/2210 09005KT 
     BECMG 2211/2213 02009KT 
     BECMG 2220/2222 11002KT RMK PHH
       
TAF SBCB 212145Z 2200/2212 35003KT 9999 FEW015 TN16/2206Z TX21/2212Z 
     TEMPO 2206/2209 4000 BR SCT010 
     BECMG 2210/2212 07007KT SCT020 RMK PFV
       
TAF SBKG 211615Z 2118/2206 13010KT 9999 SCT025 TX27/2118Z TN21/2206Z 
     BECMG 2120/2122 11007KT FEW020 
     BECMG 2201/2203 14003KT SCT006 BKN010 RMK PFV
       
TAF SBKP 212200Z 2200/2224 16008KT CAVOK TN10/2209Z TX22/2218Z 
     BECMG 2200/2202 14007KT 
     PROB30 2208/2212 12003KT 3000 BR SCT002 
     TEMPO 2214/2219 36005KT 
     TEMPO 2219/2222 20004KT RMK PGO
       
TAF SBCG 212200Z 2200/2224 09007KT CAVOK TN10/2210Z TX25/2218Z 
     BECMG 2205/2207 07010KT 
     BECMG 2214/2217 00000KT 
     BECMG 2220/2222 09006KT RMK PHH
       
TAF SBCP 212145Z 2200/2212 20005KT 9999 FEW020 TN15/2209Z TX22/2212Z 
     BECMG 2203/2205 8000 BKN020 
     BECMG 2206/2208 4000 BR NSC 
     BECMG 2210/2212 9999 NSW FEW020 RMK PFV
       
TAF SBCR 212200Z 2200/2224 12005KT CAVOK TN14/2209Z TX27/2218Z 
     BECMG 2200/2202 09005KT 
     BECMG 2209/2211 09007KT 
     BECMG 2220/2222 15005KT RMK PHH
       
TAF SBCZ 211617Z 2118/2218 36005KT 9999 FEW030 TX30/2119Z TN20/2210Z 
     BECMG 2118/2120 33005KT 
     BECMG 2207/2209 4000 BR BKN005 
     BECMG 2211/2214 03005KT 8000 NSW FEW023 RMK PHC
       
TAF SBCY 212139Z 2200/2224 18005KT CAVOK TN13/2209Z TX30/2218Z 
     BECMG 2200/2202 12005KT 
     BECMG 2203/2206 31005KT 
     BECMG 2213/2216 21007KT 
     BECMG 2218/2221 18005KT RMK PHC
       
TAF SBCT 212100Z 2200/2224 05005KT 8000 BKN002 TN07/2209Z TX18/2217Z 
     BECMG 2204/2205 2000 BR 
     BECMG 2210/2212 9999 NSW BKN012 
     BECMG 2215/2216 SCT020 
     BECMG 2222/2224 3000 BR BKN002 RMK PEC
       
TAF SBBI 211500Z 2118/2206 05004KT CAVOK TX12/2118Z TN06/2206Z 
     BECMG 2122/2124 9999 BKN002 
     BECMG 2204/2205 2000 BR RMK PEC
       
TAF SBFN 212145Z 2200/2212 11010KT 9999 FEW020 TN26/2206Z TX28/2212Z RMK PFV
       
TAF SBFL 212100Z 2200/2224 31005KT CAVOK TN14/2208Z TX22/2217Z RMK PEB
       
TAF SBFZ 212145Z 2200/2224 14005KT 9999 FEW020 TN24/2208Z TX30/2218Z 
     BECMG 2201/2203 SCT017 
     TEMPO 2203/2206 6000 RA SCT010 BKN015 
     BECMG 2208/2210 17007KT BKN017 FEW025TCU 
     BECMG 2210/2212 13012KT SCT020 FEW030TCU 
     TEMPO 2212/2215 8000 SHRA BKN025 FEW030TCU 
     BECMG 2218/2220 09010KT SCT030 RMK PFV
       
TAF SBFI 212100Z 2200/2224 09005KT CAVOK TN09/2208Z TX21/2218Z 
     BECMG 2204/2206 9999 BKN020 RMK PEC
       
TAF SBGO 212200Z 2200/2224 15002KT CAVOK TN11/2210Z TX25/2218Z 
     BECMG 2206/2208 10003KT 
     BECMG 2210/2212 06010KT 
     BECMG 2217/2219 VRB02KT 
     BECMG 2220/2222 11002KT RMK PHH
       
TAF SBGW 211500Z 2118/2206 05003KT 9999 FEW040 TX21/2118Z TN10/2206Z 
     BECMG 2204/2205 4000 BR OVC010 RMK PEC
       
TAF SBIL 211600Z 2118/2206 16010KT 9999 FEW025 TX26/2118Z TN19/2206Z 
     BECMG 2118/2120 CAVOK 
     BECMG 2121/2123 19008KT 
     BECMG 2200/2203 21006KT RMK PHH
       
TAF SBIZ 211617Z 2118/2206 07007KT 9999 SCT020 TX29/2118Z TN24/2205Z 
     BECMG 2118/2120 10007KT 
     BECMG 2121/2123 07005KT RMK PHC
       
TAF SBIH 211617Z 2118/2206 12005KT 9999 SCT017 TX31/2118Z TN23/2206Z 
     BECMG 2118/2120 07005KT RMK PHC